sensor_id;sensor_type;location;lat;lon;timestamp;P1;durP1;ratioP1;P2;durP2;ratioP2
39620;SDS011;25309;48.686;9.170;2022-09-27T03:00:40;0.77;;;0.33;;
39620;SDS011;25309;48.686;9.170;2022-09-27T03:03:35;0.93;;;0.50;;
39620;SDS011;25309;48.686;9.170;2022-09-27T03:06:08;1.17;;;0.40;;
39620;SDS011;25309;48.686;9.170;2022-09-27T03:08:37;2.30;;;0.50;;
39620;SDS011;25309;48.686;9.170;2022-09-27T03:11:05;0.83;;;0.33;;
39620;SDS011;25309;48.686;9.170;2022-09-27T03:13:32;2.37;;;0.40;;
39620;SDS011;25309;48.686;9.170;2022-09-27T03:16:23;0.73;;;0.40;;
39620;SDS011;25309;48.686;9.170;2022-09-27T03:18:57;0.80;;;0.50;;
39620;SDS011;25309;48.686;9.170;2022-09-27T03:21:47;0.77;;;0.60;;
39620;SDS011;25309;48.686;9.170;2022-09-27T03:24:14;2.77;;;0.80;;
39620;SDS011;25309;48.686;9.170;2022-09-27T03:26:41;3.47;;;0.80;;
39620;SDS011;25309;48.686;9.170;2022-09-27T03:29:08;1.63;;;0.80;;
39620;SDS011;25309;48.686;9.170;2022-09-27T03:31:38;2.07;;;0.70;;
39620;SDS011;25309;48.686;9.170;2022-09-27T03:34:24;2.43;;;0.93;;
39620;SDS011;25309;48.686;9.170;2022-09-27T03:36:51;3.50;;;1.07;;
39620;SDS011;25309;48.686;9.170;2022-09-27T03:39:18;1.60;;;0.90;;
39620;SDS011;25309;48.686;9.170;2022-09-27T03:41:45;1.87;;;1.20;;
39620;SDS011;25309;48.686;9.170;2022-09-27T03:44:12;2.77;;;1.30;;
39620;SDS011;25309;48.686;9.170;2022-09-27T03:46:40;3.90;;;1.40;;
39620;SDS011;25309;48.686;9.170;2022-09-27T03:49:07;5.10;;;1.60;;
39620;SDS011;25309;48.686;9.170;2022-09-27T03:51:34;3.70;;;1.60;;
39620;SDS011;25309;48.686;9.170;2022-09-27T03:54:01;3.53;;;1.50;;
39620;SDS011;25309;48.686;9.170;2022-09-27T03:56:28;6.63;;;1.80;;
39620;SDS011;25309;48.686;9.170;2022-09-27T03:58:55;3.87;;;1.70;;
39620;SDS011;25309;48.686;9.170;2022-09-27T04:01:22;2.97;;;1.40;;
39620;SDS011;25309;48.686;9.170;2022-09-27T04:03:56;3.77;;;1.70;;
39620;SDS011;25309;48.686;9.170;2022-09-27T04:06:30;3.63;;;1.63;;
39620;SDS011;25309;48.686;9.170;2022-09-27T04:08:57;3.23;;;1.90;;
39620;SDS011;25309;48.686;9.170;2022-09-27T04:11:34;5.70;;;2.00;;
39620;SDS011;25309;48.686;9.170;2022-09-27T04:14:01;5.93;;;1.53;;
39620;SDS011;25309;48.686;9.170;2022-09-27T04:16:35;6.13;;;2.00;;
39620;SDS011;25309;48.686;9.170;2022-09-27T04:19:20;4.73;;;1.60;;
39620;SDS011;25309;48.686;9.170;2022-09-27T04:22:00;3.47;;;1.60;;
39620;SDS011;25309;48.686;9.170;2022-09-27T04:24:28;3.80;;;1.63;;
39620;SDS011;25309;48.686;9.170;2022-09-27T04:27:14;3.93;;;1.80;;
39620;SDS011;25309;48.686;9.170;2022-09-27T04:29:42;5.80;;;1.77;;
39620;SDS011;25309;48.686;9.170;2022-09-27T04:32:31;4.00;;;1.63;;
39620;SDS011;25309;48.686;9.170;2022-09-27T04:35:18;3.20;;;1.70;;
39620;SDS011;25309;48.686;9.170;2022-09-27T04:38:03;4.77;;;1.87;;
39620;SDS011;25309;48.686;9.170;2022-09-27T04:40:32;3.97;;;2.00;;
39620;SDS011;25309;48.686;9.170;2022-09-27T04:43:00;4.80;;;2.10;;
39620;SDS011;25309;48.686;9.170;2022-09-27T04:45:29;4.23;;;2.00;;
39620;SDS011;25309;48.686;9.170;2022-09-27T04:47:56;5.53;;;1.80;;
39620;SDS011;25309;48.686;9.170;2022-09-27T04:50:24;3.57;;;1.80;;
39620;SDS011;25309;48.686;9.170;2022-09-27T04:53:00;6.67;;;1.90;;
39620;SDS011;25309;48.686;9.170;2022-09-27T04:55:27;4.47;;;1.83;;
39620;SDS011;25309;48.686;9.170;2022-09-27T04:57:54;4.27;;;1.80;;
39620;SDS011;25309;48.686;9.170;2022-09-27T05:00:21;4.40;;;1.80;;
39620;SDS011;25309;48.686;9.170;2022-09-27T05:02:55;4.30;;;1.80;;
39620;SDS011;25309;48.686;9.170;2022-09-27T05:05:53;2.87;;;1.80;;
39620;SDS011;25309;48.686;9.170;2022-09-27T05:08:20;7.23;;;1.83;;
39620;SDS011;25309;48.686;9.170;2022-09-27T05:11:11;5.33;;;1.80;;
39620;SDS011;25309;48.686;9.170;2022-09-27T05:13:40;4.30;;;1.47;;
39620;SDS011;25309;48.686;9.170;2022-09-27T05:16:07;3.80;;;1.90;;
39620;SDS011;25309;48.686;9.170;2022-09-27T05:18:59;2.70;;;1.47;;
39620;SDS011;25309;48.686;9.170;2022-09-27T05:21:57;3.93;;;1.57;;
39620;SDS011;25309;48.686;9.170;2022-09-27T05:24:24;4.73;;;1.60;;
39620;SDS011;25309;48.686;9.170;2022-09-27T05:26:53;3.27;;;1.60;;
39620;SDS011;25309;48.686;9.170;2022-09-27T05:29:20;4.73;;;1.70;;
39620;SDS011;25309;48.686;9.170;2022-09-27T05:32:02;4.53;;;1.30;;
39620;SDS011;25309;48.686;9.170;2022-09-27T05:34:29;3.43;;;1.40;;
39620;SDS011;25309;48.686;9.170;2022-09-27T05:37:01;2.40;;;1.30;;
39620;SDS011;25309;48.686;9.170;2022-09-27T05:39:33;2.23;;;1.13;;
39620;SDS011;25309;48.686;9.170;2022-09-27T05:42:00;3.13;;;1.10;;
39620;SDS011;25309;48.686;9.170;2022-09-27T05:44:29;2.67;;;1.20;;
39620;SDS011;25309;48.686;9.170;2022-09-27T05:46:59;3.83;;;1.20;;
39620;SDS011;25309;48.686;9.170;2022-09-27T05:49:26;2.57;;;1.20;;
39620;SDS011;25309;48.686;9.170;2022-09-27T05:51:54;4.53;;;1.50;;
39620;SDS011;25309;48.686;9.170;2022-09-27T05:54:24;5.57;;;2.07;;
39620;SDS011;25309;48.686;9.170;2022-09-27T05:56:52;7.27;;;2.90;;
39620;SDS011;25309;48.686;9.170;2022-09-27T05:59:31;6.10;;;2.33;;
39620;SDS011;25309;48.686;9.170;2022-09-27T06:02:17;2.27;;;1.40;;
39620;SDS011;25309;48.686;9.170;2022-09-27T06:05:20;2.87;;;1.40;;
39620;SDS011;25309;48.686;9.170;2022-09-27T06:07:47;4.50;;;2.50;;
39620;SDS011;25309;48.686;9.170;2022-09-27T06:10:28;4.17;;;2.30;;
39620;SDS011;25309;48.686;9.170;2022-09-27T06:12:59;2.43;;;1.60;;
39620;SDS011;25309;48.686;9.170;2022-09-27T06:15:33;4.17;;;1.50;;
39620;SDS011;25309;48.686;9.170;2022-09-27T06:18:03;2.37;;;1.40;;
39620;SDS011;25309;48.686;9.170;2022-09-27T06:20:32;3.50;;;1.57;;
39620;SDS011;25309;48.686;9.170;2022-09-27T06:23:03;2.30;;;1.00;;
39620;SDS011;25309;48.686;9.170;2022-09-27T06:25:33;2.33;;;1.20;;
39620;SDS011;25309;48.686;9.170;2022-09-27T06:28:21;1.93;;;1.10;;
39620;SDS011;25309;48.686;9.170;2022-09-27T06:30:53;1.70;;;1.27;;
39620;SDS011;25309;48.686;9.170;2022-09-27T06:33:38;1.77;;;1.20;;
39620;SDS011;25309;48.686;9.170;2022-09-27T06:36:05;2.50;;;1.00;;
39620;SDS011;25309;48.686;9.170;2022-09-27T06:38:35;1.07;;;0.80;;
39620;SDS011;25309;48.686;9.170;2022-09-27T06:41:11;1.50;;;0.93;;
39620;SDS011;25309;48.686;9.170;2022-09-27T06:44:03;1.63;;;0.80;;
39620;SDS011;25309;48.686;9.170;2022-09-27T06:46:49;0.83;;;0.60;;
39620;SDS011;25309;48.686;9.170;2022-09-27T06:49:23;1.20;;;0.80;;
39620;SDS011;25309;48.686;9.170;2022-09-27T06:51:50;0.83;;;0.70;;
39620;SDS011;25309;48.686;9.170;2022-09-27T06:54:20;0.90;;;0.70;;
39620;SDS011;25309;48.686;9.170;2022-09-27T06:56:48;1.00;;;0.80;;
39620;SDS011;25309;48.686;9.170;2022-09-27T06:59:15;0.97;;;0.77;;
39620;SDS011;25309;48.686;9.170;2022-09-27T07:02:33;1.40;;;0.90;;
39620;SDS011;25309;48.686;9.170;2022-09-27T07:05:16;1.33;;;1.00;;
39620;SDS011;25309;48.686;9.170;2022-09-27T07:08:04;0.90;;;0.70;;
39620;SDS011;25309;48.686;9.170;2022-09-27T07:10:32;1.00;;;0.60;;
39620;SDS011;25309;48.686;9.170;2022-09-27T07:13:03;1.23;;;0.47;;
39620;SDS011;25309;48.686;9.170;2022-09-27T07:15:31;0.80;;;0.60;;
39620;SDS011;25309;48.686;9.170;2022-09-27T07:17:58;0.90;;;0.73;;
39620;SDS011;25309;48.686;9.170;2022-09-27T07:20:27;0.60;;;0.60;;
39620;SDS011;25309;48.686;9.170;2022-09-27T07:22:57;0.70;;;0.50;;
39620;SDS011;25309;48.686;9.170;2022-09-27T07:25:24;1.10;;;0.60;;
39620;SDS011;25309;48.686;9.170;2022-09-27T07:27:52;2.43;;;0.50;;
39620;SDS011;25309;48.686;9.170;2022-09-27T07:30:20;1.77;;;0.87;;
39620;SDS011;25309;48.686;9.170;2022-09-27T07:32:48;0.73;;;0.60;;
39620;SDS011;25309;48.686;9.170;2022-09-27T07:35:15;2.17;;;0.40;;
39620;SDS011;25309;48.686;9.170;2022-09-27T07:37:43;0.83;;;0.47;;
39620;SDS011;25309;48.686;9.170;2022-09-27T07:40:11;0.80;;;0.50;;
39620;SDS011;25309;48.686;9.170;2022-09-27T07:42:38;0.50;;;0.40;;
39620;SDS011;25309;48.686;9.170;2022-09-27T07:45:07;1.33;;;0.60;;
39620;SDS011;25309;48.686;9.170;2022-09-27T07:47:54;0.77;;;0.50;;
39620;SDS011;25309;48.686;9.170;2022-09-27T07:50:37;1.23;;;0.40;;
39620;SDS011;25309;48.686;9.170;2022-09-27T07:53:23;0.43;;;0.43;;
39620;SDS011;25309;48.686;9.170;2022-09-27T07:55:56;0.10;;;0.10;;
39620;SDS011;25309;48.686;9.170;2022-09-27T07:58:26;0.53;;;0.40;;
39620;SDS011;25309;48.686;9.170;2022-09-27T08:00:58;1.00;;;0.50;;
39620;SDS011;25309;48.686;9.170;2022-09-27T08:03:27;0.33;;;0.20;;
39620;SDS011;25309;48.686;9.170;2022-09-27T08:05:54;1.67;;;0.50;;
39620;SDS011;25309;48.686;9.170;2022-09-27T08:08:21;2.07;;;0.50;;
39620;SDS011;25309;48.686;9.170;2022-09-27T08:10:49;0.93;;;0.43;;
39620;SDS011;25309;48.686;9.170;2022-09-27T08:13:17;0.30;;;0.30;;
39620;SDS011;25309;48.686;9.170;2022-09-27T08:15:47;0.30;;;0.30;;
39620;SDS011;25309;48.686;9.170;2022-09-27T08:18:14;1.17;;;0.30;;
39620;SDS011;25309;48.686;9.170;2022-09-27T08:20:53;0.50;;;0.30;;
39620;SDS011;25309;48.686;9.170;2022-09-27T08:23:40;0.70;;;0.40;;
39620;SDS011;25309;48.686;9.170;2022-09-27T08:26:40;0.40;;;0.40;;
39620;SDS011;25309;48.686;9.170;2022-09-27T08:29:11;0.53;;;0.20;;
39620;SDS011;25309;48.686;9.170;2022-09-27T08:31:49;0.20;;;0.20;;
39620;SDS011;25309;48.686;9.170;2022-09-27T08:34:17;0.80;;;0.37;;
39620;SDS011;25309;48.686;9.170;2022-09-27T08:36:45;1.20;;;0.33;;
39620;SDS011;25309;48.686;9.170;2022-09-27T08:39:12;1.60;;;0.30;;
39620;SDS011;25309;48.686;9.170;2022-09-27T08:41:49;1.23;;;0.50;;
39620;SDS011;25309;48.686;9.170;2022-09-27T08:44:22;0.63;;;0.30;;
39620;SDS011;25309;48.686;9.170;2022-09-27T08:47:01;0.57;;;0.40;;
39620;SDS011;25309;48.686;9.170;2022-09-27T08:49:32;0.80;;;0.40;;
39620;SDS011;25309;48.686;9.170;2022-09-27T08:52:04;2.63;;;0.50;;
39620;SDS011;25309;48.686;9.170;2022-09-27T08:54:33;0.10;;;0.10;;
39620;SDS011;25309;48.686;9.170;2022-09-27T08:57:02;0.83;;;0.30;;
39620;SDS011;25309;48.686;9.170;2022-09-27T08:59:33;0.57;;;0.30;;
39620;SDS011;25309;48.686;9.170;2022-09-27T09:02:08;1.13;;;0.30;;
39620;SDS011;25309;48.686;9.170;2022-09-27T09:04:45;0.50;;;0.30;;
39620;SDS011;25309;48.686;9.170;2022-09-27T09:07:19;1.07;;;0.50;;
39620;SDS011;25309;48.686;9.170;2022-09-27T09:10:02;0.67;;;0.40;;
39620;SDS011;25309;48.686;9.170;2022-09-27T09:12:45;0.30;;;0.20;;
39620;SDS011;25309;48.686;9.170;2022-09-27T09:15:35;0.20;;;0.20;;
39620;SDS011;25309;48.686;9.170;2022-09-27T09:18:25;2.27;;;0.50;;
39620;SDS011;25309;48.686;9.170;2022-09-27T09:21:06;0.40;;;0.40;;
39620;SDS011;25309;48.686;9.170;2022-09-27T09:23:53;1.03;;;0.60;;
39620;SDS011;25309;48.686;9.170;2022-09-27T09:26:32;0.30;;;0.10;;
39620;SDS011;25309;48.686;9.170;2022-09-27T09:29:08;0.40;;;0.40;;
39620;SDS011;25309;48.686;9.170;2022-09-27T09:31:49;0.20;;;0.20;;
39620;SDS011;25309;48.686;9.170;2022-09-27T09:34:24;0.20;;;0.20;;
39620;SDS011;25309;48.686;9.170;2022-09-27T09:36:56;1.10;;;0.20;;
39620;SDS011;25309;48.686;9.170;2022-09-27T09:39:32;0.70;;;0.50;;
39620;SDS011;25309;48.686;9.170;2022-09-27T09:42:06;0.53;;;0.40;;
39620;SDS011;25309;48.686;9.170;2022-09-27T09:44:40;0.80;;;0.47;;
39620;SDS011;25309;48.686;9.170;2022-09-27T09:47:17;1.00;;;0.57;;
39620;SDS011;25309;48.686;9.170;2022-09-27T09:49:52;1.37;;;0.70;;
39620;SDS011;25309;48.686;9.170;2022-09-27T09:52:23;1.97;;;0.90;;
39620;SDS011;25309;48.686;9.170;2022-09-27T09:54:59;1.23;;;0.80;;
39620;SDS011;25309;48.686;9.170;2022-09-27T09:57:34;1.90;;;0.80;;
39620;SDS011;25309;48.686;9.170;2022-09-27T10:00:13;2.30;;;0.70;;
39620;SDS011;25309;48.686;9.170;2022-09-27T10:02:41;1.30;;;0.70;;
39620;SDS011;25309;48.686;9.170;2022-09-27T10:05:14;2.23;;;0.80;;
39620;SDS011;25309;48.686;9.170;2022-09-27T10:07:45;1.57;;;0.80;;
39620;SDS011;25309;48.686;9.170;2022-09-27T10:10:15;1.73;;;0.70;;
39620;SDS011;25309;48.686;9.170;2022-09-27T10:12:53;2.80;;;0.80;;
39620;SDS011;25309;48.686;9.170;2022-09-27T10:15:27;1.17;;;0.70;;
39620;SDS011;25309;48.686;9.170;2022-09-27T10:17:56;1.57;;;0.70;;
39620;SDS011;25309;48.686;9.170;2022-09-27T10:20:30;1.93;;;0.80;;
39620;SDS011;25309;48.686;9.170;2022-09-27T10:23:05;1.97;;;0.70;;
39620;SDS011;25309;48.686;9.170;2022-09-27T10:25:50;1.10;;;0.70;;
39620;SDS011;25309;48.686;9.170;2022-09-27T10:28:35;1.97;;;0.70;;
39620;SDS011;25309;48.686;9.170;2022-09-27T10:31:06;3.20;;;0.93;;
39620;SDS011;25309;48.686;9.170;2022-09-27T10:33:50;2.07;;;0.77;;
39620;SDS011;25309;48.686;9.170;2022-09-27T10:36:21;1.13;;;0.90;;
39620;SDS011;25309;48.686;9.170;2022-09-27T10:38:51;2.07;;;0.80;;
39620;SDS011;25309;48.686;9.170;2022-09-27T10:41:36;1.37;;;0.90;;
39620;SDS011;25309;48.686;9.170;2022-09-27T10:44:18;1.67;;;0.90;;
39620;SDS011;25309;48.686;9.170;2022-09-27T10:47:18;1.63;;;0.87;;
39620;SDS011;25309;48.686;9.170;2022-09-27T10:50:00;3.03;;;0.93;;
39620;SDS011;25309;48.686;9.170;2022-09-27T10:52:42;2.03;;;0.90;;
39620;SDS011;25309;48.686;9.170;2022-09-27T10:55:14;2.63;;;1.03;;
39620;SDS011;25309;48.686;9.170;2022-09-27T10:57:51;4.00;;;1.10;;
39620;SDS011;25309;48.686;9.170;2022-09-27T11:00:21;3.57;;;1.10;;
39620;SDS011;25309;48.686;9.170;2022-09-27T11:02:50;2.17;;;1.10;;
39620;SDS011;25309;48.686;9.170;2022-09-27T11:05:31;1.23;;;0.83;;
39620;SDS011;25309;48.686;9.170;2022-09-27T11:08:01;1.77;;;1.07;;
39620;SDS011;25309;48.686;9.170;2022-09-27T11:11:01;0.90;;;0.70;;
39620;SDS011;25309;48.686;9.170;2022-09-27T11:13:35;1.63;;;0.90;;
39620;SDS011;25309;48.686;9.170;2022-09-27T11:16:11;1.57;;;0.70;;
39620;SDS011;25309;48.686;9.170;2022-09-27T11:18:58;1.77;;;0.90;;
39620;SDS011;25309;48.686;9.170;2022-09-27T11:21:37;0.60;;;0.60;;
39620;SDS011;25309;48.686;9.170;2022-09-27T11:24:24;1.90;;;0.70;;
39620;SDS011;25309;48.686;9.170;2022-09-27T11:27:05;1.97;;;0.80;;
39620;SDS011;25309;48.686;9.170;2022-09-27T11:29:42;1.40;;;0.70;;
39620;SDS011;25309;48.686;9.170;2022-09-27T11:32:43;1.73;;;0.80;;
39620;SDS011;25309;48.686;9.170;2022-09-27T11:35:25;2.73;;;0.93;;
39620;SDS011;25309;48.686;9.170;2022-09-27T11:38:08;1.37;;;0.90;;
39620;SDS011;25309;48.686;9.170;2022-09-27T11:41:08;1.70;;;0.80;;
39620;SDS011;25309;48.686;9.170;2022-09-27T11:44:05;1.43;;;0.70;;
39620;SDS011;25309;48.686;9.170;2022-09-27T11:46:51;2.47;;;0.70;;
39620;SDS011;25309;48.686;9.170;2022-09-27T11:49:29;2.83;;;0.80;;
39620;SDS011;25309;48.686;9.170;2022-09-27T11:52:21;1.43;;;0.73;;
39620;SDS011;25309;48.686;9.170;2022-09-27T11:55:00;1.63;;;0.80;;
39620;SDS011;25309;48.686;9.170;2022-09-27T11:57:41;1.33;;;0.80;;
39620;SDS011;25309;48.686;9.170;2022-09-27T12:00:15;2.43;;;1.10;;
39620;SDS011;25309;48.686;9.170;2022-09-27T12:03:16;2.23;;;1.00;;
39620;SDS011;25309;48.686;9.170;2022-09-27T12:06:06;2.53;;;0.97;;
39620;SDS011;25309;48.686;9.170;2022-09-27T12:08:47;2.47;;;1.20;;
39620;SDS011;25309;48.686;9.170;2022-09-27T12:11:22;1.80;;;1.03;;
39620;SDS011;25309;48.686;9.170;2022-09-27T12:13:54;2.37;;;1.20;;
39620;SDS011;25309;48.686;9.170;2022-09-27T12:16:25;2.20;;;0.90;;
39620;SDS011;25309;48.686;9.170;2022-09-27T12:18:54;1.07;;;0.83;;
39620;SDS011;25309;48.686;9.170;2022-09-27T12:21:41;1.43;;;0.80;;
39620;SDS011;25309;48.686;9.170;2022-09-27T12:24:09;0.97;;;0.80;;
39620;SDS011;25309;48.686;9.170;2022-09-27T12:26:55;2.27;;;0.97;;
39620;SDS011;25309;48.686;9.170;2022-09-27T12:29:27;2.20;;;0.87;;
39620;SDS011;25309;48.686;9.170;2022-09-27T12:32:01;1.30;;;0.90;;
39620;SDS011;25309;48.686;9.170;2022-09-27T12:34:38;2.27;;;0.73;;
39620;SDS011;25309;48.686;9.170;2022-09-27T12:37:11;1.07;;;0.77;;
39620;SDS011;25309;48.686;9.170;2022-09-27T12:39:46;0.83;;;0.70;;
39620;SDS011;25309;48.686;9.170;2022-09-27T12:42:23;1.33;;;0.80;;
39620;SDS011;25309;48.686;9.170;2022-09-27T12:44:57;1.37;;;0.70;;
39620;SDS011;25309;48.686;9.170;2022-09-27T12:47:28;2.77;;;0.70;;
39620;SDS011;25309;48.686;9.170;2022-09-27T12:50:18;1.20;;;0.80;;
39620;SDS011;25309;48.686;9.170;2022-09-27T12:52:56;1.43;;;0.97;;
39620;SDS011;25309;48.686;9.170;2022-09-27T12:55:36;1.67;;;0.90;;
39620;SDS011;25309;48.686;9.170;2022-09-27T13:01:04;1.67;;;0.77;;
39620;SDS011;25309;48.686;9.170;2022-09-27T13:03:51;2.60;;;0.80;;
39620;SDS011;25309;48.686;9.170;2022-09-27T13:06:32;1.77;;;0.90;;
39620;SDS011;25309;48.686;9.170;2022-09-27T13:09:27;2.03;;;0.90;;
39620;SDS011;25309;48.686;9.170;2022-09-27T13:12:13;1.67;;;0.67;;
39620;SDS011;25309;48.686;9.170;2022-09-27T13:14:47;1.87;;;0.67;;
39620;SDS011;25309;48.686;9.170;2022-09-27T13:17:32;1.83;;;0.60;;
39620;SDS011;25309;48.686;9.170;2022-09-27T13:20:35;1.60;;;0.70;;
39620;SDS011;25309;48.686;9.170;2022-09-27T13:26:21;1.33;;;0.70;;
39620;SDS011;25309;48.686;9.170;2022-09-27T13:29:18;1.03;;;0.70;;
39620;SDS011;25309;48.686;9.170;2022-09-27T13:35:16;1.40;;;0.80;;
39620;SDS011;25309;48.686;9.170;2022-09-27T13:37:51;0.63;;;0.50;;
39620;SDS011;25309;48.686;9.170;2022-09-27T13:40:30;1.37;;;0.50;;
39620;SDS011;25309;48.686;9.170;2022-09-27T13:46:29;3.87;;;2.07;;
39620;SDS011;25309;48.686;9.170;2022-09-27T13:49:01;1.43;;;0.80;;
39620;SDS011;25309;48.686;9.170;2022-09-27T13:51:49;1.10;;;0.50;;
39620;SDS011;25309;48.686;9.170;2022-09-27T13:54:35;1.13;;;0.50;;
39620;SDS011;25309;48.686;9.170;2022-09-27T13:57:15;1.97;;;0.50;;
39620;SDS011;25309;48.686;9.170;2022-09-27T14:00:21;1.20;;;0.83;;
39620;SDS011;25309;48.686;9.170;2022-09-27T14:02:56;0.57;;;0.40;;
39620;SDS011;25309;48.686;9.170;2022-09-27T14:05:30;0.40;;;0.40;;
39620;SDS011;25309;48.686;9.170;2022-09-27T14:08:00;0.50;;;0.30;;
39620;SDS011;25309;48.686;9.170;2022-09-27T14:10:29;1.10;;;0.80;;
39620;SDS011;25309;48.686;9.170;2022-09-27T14:13:00;1.63;;;0.90;;
39620;SDS011;25309;48.686;9.170;2022-09-27T14:15:34;1.87;;;0.70;;
39620;SDS011;25309;48.686;9.170;2022-09-27T14:18:03;1.47;;;0.50;;
39620;SDS011;25309;48.686;9.170;2022-09-27T14:20:31;1.23;;;0.40;;
39620;SDS011;25309;48.686;9.170;2022-09-27T14:23:02;0.70;;;0.50;;
39620;SDS011;25309;48.686;9.170;2022-09-27T14:25:37;0.87;;;0.50;;
39620;SDS011;25309;48.686;9.170;2022-09-27T14:28:18;0.57;;;0.50;;
39620;SDS011;25309;48.686;9.170;2022-09-27T14:31:05;0.43;;;0.33;;
39620;SDS011;25309;48.686;9.170;2022-09-27T14:33:50;2.17;;;0.67;;
39620;SDS011;25309;48.686;9.170;2022-09-27T14:36:31;1.30;;;0.60;;
39620;SDS011;25309;48.686;9.170;2022-09-27T14:39:20;1.50;;;0.47;;
39620;SDS011;25309;48.686;9.170;2022-09-27T14:41:50;1.60;;;0.40;;
39620;SDS011;25309;48.686;9.170;2022-09-27T14:44:19;1.40;;;0.70;;
39620;SDS011;25309;48.686;9.170;2022-09-27T14:47:08;0.60;;;0.40;;
39620;SDS011;25309;48.686;9.170;2022-09-27T14:49:44;1.97;;;0.33;;
39620;SDS011;25309;48.686;9.170;2022-09-27T14:52:14;0.77;;;0.40;;
39620;SDS011;25309;48.686;9.170;2022-09-27T14:54:43;0.80;;;0.30;;
39620;SDS011;25309;48.686;9.170;2022-09-27T14:57:20;1.13;;;0.40;;
39620;SDS011;25309;48.686;9.170;2022-09-27T14:59:48;1.10;;;0.50;;
39620;SDS011;25309;48.686;9.170;2022-09-27T15:02:16;1.07;;;0.40;;
39620;SDS011;25309;48.686;9.170;2022-09-27T15:04:46;0.80;;;0.30;;
39620;SDS011;25309;48.686;9.170;2022-09-27T15:07:15;0.50;;;0.30;;
39620;SDS011;25309;48.686;9.170;2022-09-27T15:09:42;0.37;;;0.20;;
39620;SDS011;25309;48.686;9.170;2022-09-27T15:12:11;0.60;;;0.30;;
39620;SDS011;25309;48.686;9.170;2022-09-27T15:14:41;0.70;;;0.40;;
39620;SDS011;25309;48.686;9.170;2022-09-27T15:17:16;0.40;;;0.30;;
39620;SDS011;25309;48.686;9.170;2022-09-27T15:19:54;1.33;;;0.53;;
39620;SDS011;25309;48.686;9.170;2022-09-27T15:22:33;0.50;;;0.30;;
39620;SDS011;25309;48.686;9.170;2022-09-27T15:25:06;0.60;;;0.40;;
39620;SDS011;25309;48.686;9.170;2022-09-27T15:27:45;0.93;;;0.50;;
39620;SDS011;25309;48.686;9.170;2022-09-27T15:30:16;0.63;;;0.40;;
39620;SDS011;25309;48.686;9.170;2022-09-27T15:32:49;0.50;;;0.43;;
39620;SDS011;25309;48.686;9.170;2022-09-27T15:35:21;0.70;;;0.40;;
39620;SDS011;25309;48.686;9.170;2022-09-27T15:37:51;1.17;;;0.60;;
39620;SDS011;25309;48.686;9.170;2022-09-27T15:43:28;1.93;;;1.00;;
39620;SDS011;25309;48.686;9.170;2022-09-27T15:45:57;2.63;;;0.90;;
39620;SDS011;25309;48.686;9.170;2022-09-27T15:48:29;2.40;;;0.90;;
39620;SDS011;25309;48.686;9.170;2022-09-27T15:50:57;1.27;;;0.70;;
39620;SDS011;25309;48.686;9.170;2022-09-27T15:53:41;2.50;;;0.70;;
39620;SDS011;25309;48.686;9.170;2022-09-27T15:56:09;1.03;;;0.57;;
39620;SDS011;25309;48.686;9.170;2022-09-27T15:58:39;2.40;;;1.10;;
39620;SDS011;25309;48.686;9.170;2022-09-27T16:01:06;1.07;;;0.80;;
39620;SDS011;25309;48.686;9.170;2022-09-27T16:03:34;1.07;;;0.80;;
39620;SDS011;25309;48.686;9.170;2022-09-27T16:06:02;1.77;;;1.00;;
39620;SDS011;25309;48.686;9.170;2022-09-27T16:08:29;1.73;;;1.00;;
39620;SDS011;25309;48.686;9.170;2022-09-27T16:10:57;4.00;;;1.30;;
39620;SDS011;25309;48.686;9.170;2022-09-27T16:13:25;6.37;;;2.47;;
39620;SDS011;25309;48.686;9.170;2022-09-27T16:15:58;4.13;;;2.03;;
39620;SDS011;25309;48.686;9.170;2022-09-27T16:18:25;2.33;;;1.10;;
39620;SDS011;25309;48.686;9.170;2022-09-27T16:20:57;1.67;;;0.90;;
39620;SDS011;25309;48.686;9.170;2022-09-27T16:23:24;3.63;;;1.20;;
39620;SDS011;25309;48.686;9.170;2022-09-27T16:25:51;2.07;;;1.00;;
39620;SDS011;25309;48.686;9.170;2022-09-27T16:28:18;2.87;;;1.20;;
39620;SDS011;25309;48.686;9.170;2022-09-27T16:30:45;2.10;;;1.20;;
39620;SDS011;25309;48.686;9.170;2022-09-27T16:33:13;2.00;;;0.90;;
39620;SDS011;25309;48.686;9.170;2022-09-27T16:35:40;1.53;;;1.00;;
39620;SDS011;25309;48.686;9.170;2022-09-27T16:38:08;2.27;;;0.90;;
39620;SDS011;25309;48.686;9.170;2022-09-27T16:40:36;2.73;;;1.00;;
39620;SDS011;25309;48.686;9.170;2022-09-27T16:43:03;1.77;;;1.20;;
39620;SDS011;25309;48.686;9.170;2022-09-27T16:45:33;3.13;;;1.57;;
39620;SDS011;25309;48.686;9.170;2022-09-27T16:48:01;2.43;;;1.00;;
39620;SDS011;25309;48.686;9.170;2022-09-27T16:50:28;2.20;;;1.40;;
39620;SDS011;25309;48.686;9.170;2022-09-27T16:53:15;1.83;;;0.80;;
39620;SDS011;25309;48.686;9.170;2022-09-27T16:55:42;1.43;;;0.67;;
39620;SDS011;25309;48.686;9.170;2022-09-27T16:58:09;2.77;;;0.80;;
39620;SDS011;25309;48.686;9.170;2022-09-27T17:00:38;2.43;;;1.00;;
39620;SDS011;25309;48.686;9.170;2022-09-27T17:03:07;4.13;;;1.40;;
39620;SDS011;25309;48.686;9.170;2022-09-27T17:05:34;1.73;;;0.90;;
39620;SDS011;25309;48.686;9.170;2022-09-27T17:08:01;1.27;;;0.77;;
39620;SDS011;25309;48.686;9.170;2022-09-27T17:10:29;0.70;;;0.60;;
39620;SDS011;25309;48.686;9.170;2022-09-27T17:12:57;1.20;;;0.63;;
39620;SDS011;25309;48.686;9.170;2022-09-27T17:15:25;1.20;;;0.70;;
39620;SDS011;25309;48.686;9.170;2022-09-27T17:17:53;0.63;;;0.57;;
39620;SDS011;25309;48.686;9.170;2022-09-27T17:20:19;1.20;;;0.70;;
39620;SDS011;25309;48.686;9.170;2022-09-27T17:22:46;0.93;;;0.70;;
39620;SDS011;25309;48.686;9.170;2022-09-27T17:25:13;1.03;;;0.60;;
39620;SDS011;25309;48.686;9.170;2022-09-27T17:27:41;1.80;;;0.90;;
39620;SDS011;25309;48.686;9.170;2022-09-27T17:30:09;2.67;;;1.00;;
39620;SDS011;25309;48.686;9.170;2022-09-27T17:32:36;4.00;;;2.90;;
39620;SDS011;25309;48.686;9.170;2022-09-27T17:35:04;3.13;;;1.80;;
39620;SDS011;25309;48.686;9.170;2022-09-27T17:37:32;2.10;;;1.00;;
39620;SDS011;25309;48.686;9.170;2022-09-27T17:39:59;2.13;;;1.00;;
39620;SDS011;25309;48.686;9.170;2022-09-27T17:42:27;2.00;;;0.97;;
39620;SDS011;25309;48.686;9.170;2022-09-27T17:44:55;4.33;;;0.93;;
39620;SDS011;25309;48.686;9.170;2022-09-27T17:47:22;1.33;;;0.90;;
39620;SDS011;25309;48.686;9.170;2022-09-27T17:50:08;0.80;;;0.73;;
39620;SDS011;25309;48.686;9.170;2022-09-27T17:52:52;1.10;;;0.90;;
39620;SDS011;25309;48.686;9.170;2022-09-27T17:55:20;2.93;;;0.90;;
39620;SDS011;25309;48.686;9.170;2022-09-27T17:57:48;1.67;;;1.00;;
39620;SDS011;25309;48.686;9.170;2022-09-27T18:00:17;3.20;;;1.23;;
39620;SDS011;25309;48.686;9.170;2022-09-27T18:02:45;0.97;;;0.80;;
39620;SDS011;25309;48.686;9.170;2022-09-27T18:05:12;1.70;;;1.30;;
39620;SDS011;25309;48.686;9.170;2022-09-27T18:07:40;2.57;;;1.23;;
39620;SDS011;25309;48.686;9.170;2022-09-27T18:10:07;1.70;;;1.10;;
39620;SDS011;25309;48.686;9.170;2022-09-27T18:12:34;3.67;;;1.10;;
39620;SDS011;25309;48.686;9.170;2022-09-27T18:15:01;1.80;;;1.13;;
39620;SDS011;25309;48.686;9.170;2022-09-27T18:17:29;2.57;;;1.20;;
39620;SDS011;25309;48.686;9.170;2022-09-27T18:19:56;1.23;;;1.00;;
39620;SDS011;25309;48.686;9.170;2022-09-27T18:22:25;3.27;;;1.20;;
39620;SDS011;25309;48.686;9.170;2022-09-27T18:24:55;2.83;;;1.30;;
39620;SDS011;25309;48.686;9.170;2022-09-27T18:27:22;2.67;;;1.37;;
39620;SDS011;25309;48.686;9.170;2022-09-27T18:29:49;5.03;;;2.00;;
39620;SDS011;25309;48.686;9.170;2022-09-27T18:32:16;4.23;;;1.83;;
39620;SDS011;25309;48.686;9.170;2022-09-27T18:34:44;3.10;;;1.97;;
39620;SDS011;25309;48.686;9.170;2022-09-27T18:37:11;2.50;;;1.93;;
39620;SDS011;25309;48.686;9.170;2022-09-27T18:39:38;2.97;;;1.80;;
39620;SDS011;25309;48.686;9.170;2022-09-27T18:42:06;3.20;;;1.90;;
39620;SDS011;25309;48.686;9.170;2022-09-27T18:44:34;4.10;;;2.33;;
39620;SDS011;25309;48.686;9.170;2022-09-27T18:47:02;1.50;;;1.20;;